sensor_id;sensor_type;location;lat;lon;timestamp;pressure;altitude;pressure_sealevel;temperature
18474;BMP180;30265;52.408;13.500;2023-04-24T00:05:22;100661.00;;;16.40
18474;BMP180;30265;52.408;13.500;2023-04-24T00:15:45;100645.00;;;16.40
18474;BMP180;30265;52.408;13.500;2023-04-24T00:26:06;100639.00;;;16.20
18474;BMP180;30265;52.408;13.500;2023-04-24T00:36:29;100615.00;;;16.10
18474;BMP180;30265;52.408;13.500;2023-04-24T00:46:53;100613.00;;;16.10
18474;BMP180;30265;52.408;13.500;2023-04-24T00:57:17;100600.00;;;16.00
18474;BMP180;30265;52.408;13.500;2023-04-24T01:07:41;100606.00;;;16.00
18474;BMP180;30265;52.408;13.500;2023-04-24T01:18:07;100608.00;;;16.10
18474;BMP180;30265;52.408;13.500;2023-04-24T01:28:30;100589.00;;;16.10
18474;BMP180;30265;52.408;13.500;2023-04-24T01:38:52;100573.00;;;16.20
18474;BMP180;30265;52.408;13.500;2023-04-24T01:49:15;100572.00;;;16.20
18474;BMP180;30265;52.408;13.500;2023-04-24T01:59:37;100563.00;;;16.10
18474;BMP180;30265;52.408;13.500;2023-04-24T02:10:01;100550.00;;;16.30
18474;BMP180;30265;52.408;13.500;2023-04-24T02:20:24;100538.00;;;16.20
18474;BMP180;30265;52.408;13.500;2023-04-24T02:30:47;100545.00;;;16.50
18474;BMP180;30265;52.408;13.500;2023-04-24T02:41:09;100547.00;;;16.40
18474;BMP180;30265;52.408;13.500;2023-04-24T02:51:31;100544.00;;;16.60
18474;BMP180;30265;52.408;13.500;2023-04-24T03:01:54;100525.00;;;16.70
18474;BMP180;30265;52.408;13.500;2023-04-24T03:12:17;100539.00;;;16.70
18474;BMP180;30265;52.408;13.500;2023-04-24T03:22:39;100542.00;;;16.70
18474;BMP180;30265;52.408;13.500;2023-04-24T03:33:02;100537.00;;;16.90
18474;BMP180;30265;52.408;13.500;2023-04-24T03:43:28;100538.00;;;16.80
18474;BMP180;30265;52.408;13.500;2023-04-24T03:53:53;100546.00;;;16.80
18474;BMP180;30265;52.408;13.500;2023-04-24T04:04:17;100535.00;;;16.90
18474;BMP180;30265;52.408;13.500;2023-04-24T04:14:40;100534.00;;;16.90
18474;BMP180;30265;52.408;13.500;2023-04-24T04:25:02;100532.00;;;16.90
18474;BMP180;30265;52.408;13.500;2023-04-24T04:35:26;100530.00;;;17.10
18474;BMP180;30265;52.408;13.500;2023-04-24T04:45:48;100547.00;;;17.30
18474;BMP180;30265;52.408;13.500;2023-04-24T04:56:31;100538.00;;;17.30
18474;BMP180;30265;52.408;13.500;2023-04-24T05:06:56;100544.00;;;17.40
18474;BMP180;30265;52.408;13.500;2023-04-24T05:17:21;100541.00;;;17.60
18474;BMP180;30265;52.408;13.500;2023-04-24T05:27:46;100522.00;;;18.10
18474;BMP180;30265;52.408;13.500;2023-04-24T05:38:11;100535.00;;;18.40
18474;BMP180;30265;52.408;13.500;2023-04-24T05:48:33;100532.00;;;18.90
18474;BMP180;30265;52.408;13.500;2023-04-24T05:58:58;100543.00;;;18.50
18474;BMP180;30265;52.408;13.500;2023-04-24T06:09:20;100551.00;;;18.50
18474;BMP180;30265;52.408;13.500;2023-04-24T06:19:44;100543.00;;;19.30
18474;BMP180;30265;52.408;13.500;2023-04-24T06:30:07;100563.00;;;18.90
18474;BMP180;30265;52.408;13.500;2023-04-24T06:40:30;100548.00;;;19.70
18474;BMP180;30265;52.408;13.500;2023-04-24T06:50:52;100543.00;;;20.20
18474;BMP180;30265;52.408;13.500;2023-04-24T07:01:15;100535.00;;;20.50
18474;BMP180;30265;52.408;13.500;2023-04-24T07:11:36;100526.00;;;20.60
18474;BMP180;30265;52.408;13.500;2023-04-24T07:22:01;100523.00;;;20.70
18474;BMP180;30265;52.408;13.500;2023-04-24T07:32:23;100519.00;;;22.00
18474;BMP180;30265;52.408;13.500;2023-04-24T07:42:46;100519.00;;;21.50
18474;BMP180;30265;52.408;13.500;2023-04-24T07:53:08;100509.00;;;21.60
18474;BMP180;30265;52.408;13.500;2023-04-24T08:03:32;100518.00;;;21.30
18474;BMP180;30265;52.408;13.500;2023-04-24T08:13:53;100527.00;;;21.30
18474;BMP180;30265;52.408;13.500;2023-04-24T08:24:17;100505.00;;;22.10
18474;BMP180;30265;52.408;13.500;2023-04-24T08:34:39;100488.00;;;22.70
18474;BMP180;30265;52.408;13.500;2023-04-24T08:45:01;100480.00;;;24.30
18474;BMP180;30265;52.408;13.500;2023-04-24T08:55:24;100523.00;;;22.20
18474;BMP180;30265;52.408;13.500;2023-04-24T09:05:48;100505.00;;;21.80
18474;BMP180;30265;52.408;13.500;2023-04-24T09:16:12;100520.00;;;22.50
18474;BMP180;30265;52.408;13.500;2023-04-24T09:26:36;100527.00;;;21.90
18474;BMP180;30265;52.408;13.500;2023-04-24T09:36:58;100535.00;;;21.80
18474;BMP180;30265;52.408;13.500;2023-04-24T09:47:22;100547.00;;;21.50
18474;BMP180;30265;52.408;13.500;2023-04-24T09:57:48;100529.00;;;22.00
18474;BMP180;30265;52.408;13.500;2023-04-24T10:08:13;100527.00;;;21.50
18474;BMP180;30265;52.408;13.500;2023-04-24T10:18:35;100538.00;;;21.80
18474;BMP180;30265;52.408;13.500;2023-04-24T10:28:58;100511.00;;;22.30
18474;BMP180;30265;52.408;13.500;2023-04-24T10:39:21;100517.00;;;23.10
18474;BMP180;30265;52.408;13.500;2023-04-24T10:49:50;100511.00;;;22.30
18474;BMP180;30265;52.408;13.500;2023-04-24T11:00:15;100515.00;;;22.50
18474;BMP180;30265;52.408;13.500;2023-04-24T11:10:40;100486.00;;;23.60
18474;BMP180;30265;52.408;13.500;2023-04-24T11:21:10;100485.00;;;23.90
18474;BMP180;30265;52.408;13.500;2023-04-24T11:31:37;100552.00;;;21.70
18474;BMP180;30265;52.408;13.500;2023-04-24T11:42:02;100588.00;;;18.80
18474;BMP180;30265;52.408;13.500;2023-04-24T11:52:27;100550.00;;;21.20
18474;BMP180;30265;52.408;13.500;2023-04-24T12:02:49;100548.00;;;21.00
18474;BMP180;30265;52.408;13.500;2023-04-24T12:13:13;100572.00;;;20.20
18474;BMP180;30265;52.408;13.500;2023-04-24T12:23:34;100532.00;;;21.00
18474;BMP180;30265;52.408;13.500;2023-04-24T12:33:58;100485.00;;;22.40
18474;BMP180;30265;52.408;13.500;2023-04-24T12:44:19;100486.00;;;22.10
18474;BMP180;30265;52.408;13.500;2023-04-24T12:54:42;100491.00;;;23.00
18474;BMP180;30265;52.408;13.500;2023-04-24T13:05:06;100468.00;;;22.80
18474;BMP180;30265;52.408;13.500;2023-04-24T13:15:28;100460.00;;;23.60
18474;BMP180;30265;52.408;13.500;2023-04-24T13:25:50;100472.00;;;23.20
18474;BMP180;30265;52.408;13.500;2023-04-24T13:36:13;100464.00;;;23.50
18474;BMP180;30265;52.408;13.500;2023-04-24T13:46:34;100445.00;;;23.90
18474;BMP180;30265;52.408;13.500;2023-04-24T13:56:57;100435.00;;;23.90
18474;BMP180;30265;52.408;13.500;2023-04-24T14:07:27;100461.00;;;23.50
18474;BMP180;30265;52.408;13.500;2023-04-24T14:17:51;100446.00;;;23.60
18474;BMP180;30265;52.408;13.500;2023-04-24T14:28:13;100465.00;;;23.70
18474;BMP180;30265;52.408;13.500;2023-04-24T14:38:36;100481.00;;;22.70
18474;BMP180;30265;52.408;13.500;2023-04-24T14:48:58;100466.00;;;22.60
18474;BMP180;30265;52.408;13.500;2023-04-24T14:59:20;100476.00;;;23.10
18474;BMP180;30265;52.408;13.500;2023-04-24T15:09:42;100471.00;;;23.10
18474;BMP180;30265;52.408;13.500;2023-04-24T15:20:07;100482.00;;;22.80
18474;BMP180;30265;52.408;13.500;2023-04-24T15:30:29;100512.00;;;22.10
18474;BMP180;30265;52.408;13.500;2023-04-24T15:40:52;100538.00;;;20.90
18474;BMP180;30265;52.408;13.500;2023-04-24T15:51:13;100555.00;;;20.80
18474;BMP180;30265;52.408;13.500;2023-04-24T16:01:36;100547.00;;;21.00
18474;BMP180;30265;52.408;13.500;2023-04-24T16:12:05;100566.00;;;20.60
18474;BMP180;30265;52.408;13.500;2023-04-24T16:22:28;100568.00;;;20.60
18474;BMP180;30265;52.408;13.500;2023-04-24T16:32:50;100570.00;;;20.60
18474;BMP180;30265;52.408;13.500;2023-04-24T16:43:18;100586.00;;;20.50
18474;BMP180;30265;52.408;13.500;2023-04-24T16:53:40;100619.00;;;20.10
18474;BMP180;30265;52.408;13.500;2023-04-24T17:04:03;100651.00;;;19.00
18474;BMP180;30265;52.408;13.500;2023-04-24T17:14:25;100674.00;;;18.70
18474;BMP180;30265;52.408;13.500;2023-04-24T17:24:49;100697.00;;;18.40
18474;BMP180;30265;52.408;13.500;2023-04-24T17:35:10;100708.00;;;18.20
18474;BMP180;30265;52.408;13.500;2023-04-24T17:45:33;100735.00;;;18.00
18474;BMP180;30265;52.408;13.500;2023-04-24T17:55:56;100753.00;;;17.80
18474;BMP180;30265;52.408;13.500;2023-04-24T18:06:22;100782.00;;;17.50
18474;BMP180;30265;52.408;13.500;2023-04-24T18:16:44;100798.00;;;17.20
18474;BMP180;30265;52.408;13.500;2023-04-24T18:27:10;100828.00;;;16.90
18474;BMP180;30265;52.408;13.500;2023-04-24T18:37:32;100858.00;;;16.60
18474;BMP180;30265;52.408;13.500;2023-04-24T18:47:55;100875.00;;;16.30
18474;BMP180;30265;52.408;13.500;2023-04-24T18:58:16;100898.00;;;16.10
18474;BMP180;30265;52.408;13.500;2023-04-24T19:08:39;100917.00;;;15.70
18474;BMP180;30265;52.408;13.500;2023-04-24T19:19:02;100938.00;;;15.50
18474;BMP180;30265;52.408;13.500;2023-04-24T19:29:26;100936.00;;;15.40
18474;BMP180;30265;52.408;13.500;2023-04-24T19:39:48;100952.00;;;15.30
18474;BMP180;30265;52.408;13.500;2023-04-24T19:50:12;100963.00;;;15.40
18474;BMP180;30265;52.408;13.500;2023-04-24T20:00:34;100960.00;;;15.20
18474;BMP180;30265;52.408;13.500;2023-04-24T20:10:58;100964.00;;;14.90
18474;BMP180;30265;52.408;13.500;2023-04-24T20:21:20;100968.00;;;14.80
18474;BMP180;30265;52.408;13.500;2023-04-24T20:31:43;100949.00;;;14.70
18474;BMP180;30265;52.408;13.500;2023-04-24T20:42:04;100961.00;;;14.40
18474;BMP180;30265;52.408;13.500;2023-04-24T20:52:28;100972.00;;;14.10
18474;BMP180;30265;52.408;13.500;2023-04-24T21:02:50;100984.00;;;14.00
18474;BMP180;30265;52.408;13.500;2023-04-24T21:13:14;100968.00;;;13.90
18474;BMP180;30265;52.408;13.500;2023-04-24T21:23:35;100977.00;;;13.70
18474;BMP180;30265;52.408;13.500;2023-04-24T21:33:58;100978.00;;;13.60
18474;BMP180;30265;52.408;13.500;2023-04-24T21:44:19;100976.00;;;13.40
18474;BMP180;30265;52.408;13.500;2023-04-24T21:54:43;100988.00;;;13.40
18474;BMP180;30265;52.408;13.500;2023-04-24T22:05:04;100973.00;;;13.40
18474;BMP180;30265;52.408;13.500;2023-04-24T22:15:28;100975.00;;;13.40
18474;BMP180;30265;52.408;13.500;2023-04-24T22:25:50;100981.00;;;13.30
18474;BMP180;30265;52.408;13.500;2023-04-24T22:36:13;100960.00;;;13.10
18474;BMP180;30265;52.408;13.500;2023-04-24T22:46:37;100983.00;;;13.10
18474;BMP180;30265;52.408;13.500;2023-04-24T22:57:00;100984.00;;;13.10
18474;BMP180;30265;52.408;13.500;2023-04-24T23:07:22;100985.00;;;13.20
18474;BMP180;30265;52.408;13.500;2023-04-24T23:17:46;100985.00;;;13.40
18474;BMP180;30265;52.408;13.500;2023-04-24T23:28:08;100981.00;;;13.70
18474;BMP180;30265;52.408;13.500;2023-04-24T23:38:31;100946.00;;;13.80
18474;BMP180;30265;52.408;13.500;2023-04-24T23:49:08;100947.00;;;13.70
18474;BMP180;30265;52.408;13.500;2023-04-24T23:59:31;100930.00;;;13.60
